チタ の空港の天気 - METARとTAF

チタ・カダラ空港 ( UIAA / HTA ) - ロシア チタ
飛行場実況気象(Metar)
観測時間11/18 20:30 YAKT (11/18 11:30 UTC)
風向・風速静穏 0m/s
視程10km以上
天気現象
少しの雲 雲底高度 1400m
気温-17℃
湿度65%
気圧1021hPa
METARUIAA 181130Z 00000MPS 9999 FEW046 M17/M22 Q1021 R29/450160 NOSIG RMK QFE707/0943
過去の天気等 Google飛行場航空写真 Wunderground天気予報

過去48時間のMETAR

飛行場予報(TAF)
発表時間: 11/18 20:00 YAKT (11/18 11:00 UTC)
予報対象時間: 18日21時 YAKT ~ 19日21時 YAKT
風向・風速北西 3m/s
視程10km以上
全天の4割程度の積乱雲 雲底高度 910m
18日21時 YAKT ~ 19日9時 YAKT に一時的に
天気現象弱いしゅう雪
全天の8割程度の積乱雲 雲底高度 430m
19日12時 YAKT ~ 19日21時 YAKT に一時的に
風向・風速西南西 5m/s
TAF UIAA 181100Z 1812/1912 32003MPS 9999 SCT030CB
TEMPO 1812/1824 -SHSN BKN014CB
TEMPO 1903/1912 25005MPS